Time;durP1;ratioP1;P1;durP2;ratioP2;P2;SDS_P1;SDS_P2;PMS_P1;PMS_P2;Temp;Humidity;BMP_temperature;BMP_pressure;BME280_temperature;BME280_humidity;BME280_pressure;Samples;Min_cycle;Max_cycle;Signal;HPM_P1;HPM_P2
2023/12/02 00:02:11;;;;;;;200.32;10.02;;;;;;;20.40;56.08;98366.13;7291716;19;130654;-42
2023/12/02 00:04:36;;;;;;;172.88;8.63;;;;;;;20.58;56.05;98395.50;7291989;19;134067;-40
2023/12/02 00:07:01;;;;;;;302.83;15.18;;;;;;;20.56;56.22;98392.22;7291051;19;130945;-39
2023/12/02 00:09:27;;;;;;;179.35;8.98;;;;;;;20.52;56.35;98377.06;7292108;19;130838;-41
2023/12/02 00:11:52;;;;;;;209.02;10.07;;;;;;;20.43;55.73;98365.78;7291194;19;130161;-38
2023/12/02 00:14:17;;;;;;;197.85;9.25;;;;;;;20.55;55.86;98385.38;7291191;19;130903;-39
2023/12/02 00:16:43;;;;;;;310.02;14.20;;;;;;;20.56;55.71;98381.78;7290769;19;129701;-40
2023/12/02 00:19:08;;;;;;;210.48;10.05;;;;;;;20.58;55.76;98379.00;7289602;19;129657;-39
2023/12/02 00:21:33;;;;;;;172.05;8.70;;;;;;;20.57;56.00;98380.00;7292291;19;133761;-40
2023/12/02 00:23:59;;;;;;;210.00;10.00;;;;;;;20.43;56.29;98365.78;7291689;19;131317;-41
2023/12/02 00:26:24;;;;;;;264.90;12.53;;;;;;;20.57;55.86;98377.38;7291362;19;129511;-39
2023/12/02 00:28:50;;;;;;;148.10;7.30;;;;;;;20.60;56.00;98379.66;7291406;19;129923;-38
2023/12/02 00:31:16;;;;;;;163.40;8.13;;;;;;;20.55;55.81;98379.34;7291451;19;131141;-42
2023/12/02 00:33:41;;;;;;;162.23;8.10;;;;;;;20.54;55.97;98377.72;7290173;19;129328;-42
2023/12/02 00:36:07;;;;;;;260.58;11.93;;;;;;;20.39;55.72;98361.88;7291254;19;130943;-42
2023/12/02 00:38:32;;;;;;;181.20;9.05;;;;;;;20.56;56.05;98391.44;7289948;19;129644;-38
2023/12/02 00:40:58;;;;;;;169.02;8.55;;;;;;;20.55;55.86;98390.63;7291778;19;130525;-42
2023/12/02 00:43:23;;;;;;;178.38;9.13;;;;;;;20.54;55.89;98388.16;7291536;19;130704;-43
2023/12/02 00:45:49;;;;;;;200.77;9.48;;;;;;;20.55;56.45;98384.56;7292289;19;131010;-39
2023/12/02 00:48:14;;;;;;;211.90;9.70;;;;;;;20.55;55.99;98389.78;7288976;19;129871;-37
2023/12/02 00:50:39;;;;;;;142.55;7.13;;;;;;;20.56;55.87;98391.44;7292307;19;130313;-42
2023/12/02 00:53:05;;;;;;;241.82;11.68;;;;;;;20.56;56.14;98400.06;7288708;19;130131;-43
2023/12/02 00:55:30;;;;;;;170.52;8.68;;;;;;;20.51;56.30;98397.13;7292525;19;129596;-41
2023/12/02 00:57:55;;;;;;;197.90;9.48;;;;;;;20.54;56.27;98430.72;7290349;19;130349;-41
2023/12/02 01:00:22;;;;;;;184.05;9.05;;;;;;;20.50;56.19;98423.41;7290051;19;129903;-41
2023/12/02 01:02:47;;;;;;;240.32;10.95;;;;;;;20.50;56.21;98419.00;7290511;19;130569;-44
2023/12/02 01:05:13;;;;;;;166.93;8.40;;;;;;;20.57;55.77;98411.34;7291626;19;129555;-44
2023/12/02 01:07:39;;;;;;;196.67;9.40;;;;;;;20.55;56.08;98388.00;7289243;19;129880;-40
2023/12/02 01:10:05;;;;;;;209.80;10.00;;;;;;;20.55;55.95;98387.19;7290123;19;129442;-41
2023/12/02 01:12:30;;;;;;;230.90;10.37;;;;;;;20.53;56.13;98386.50;7289964;19;130436;-42
2023/12/02 01:14:56;;;;;;;182.70;9.18;;;;;;;20.53;55.89;98396.97;7293164;19;130090;-42
2023/12/02 01:17:21;;;;;;;148.43;7.55;;;;;;;20.53;55.82;98396.97;7288109;19;129779;-40
2023/12/02 01:19:46;;;;;;;201.55;9.73;;;;;;;20.53;56.58;98404.78;7287979;19;129532;-41
2023/12/02 01:22:12;;;;;;;272.77;12.88;;;;;;;20.52;56.43;98405.78;7289841;19;133718;-39
2023/12/02 01:24:38;;;;;;;165.98;8.50;;;;;;;20.49;56.57;98411.34;7290738;19;129737;-44
2023/12/02 01:27:03;;;;;;;239.80;11.68;;;;;;;20.51;56.34;98415.41;7289813;19;129620;-36
2023/12/02 01:29:28;;;;;;;222.55;10.48;;;;;;;20.53;56.00;98417.84;7289138;19;131161;-37
2023/12/02 01:31:54;;;;;;;205.77;10.02;;;;;;;20.52;55.97;98416.22;7290832;19;133370;-39
2023/12/02 01:34:19;;;;;;;179.20;8.70;;;;;;;20.51;56.28;98414.59;7289338;19;132134;-38
2023/12/02 01:36:45;;;;;;;211.10;10.07;;;;;;;20.52;56.23;98421.44;7289137;19;130167;-37
2023/12/02 01:39:15;;;;;;;237.40;11.45;;;;;;;20.50;56.56;98415.56;7287780;19;130084;-37
2023/12/02 01:41:40;;;;;;;202.73;9.52;;;;;;;20.49;56.31;98419.97;7290397;19;131661;-38
2023/12/02 01:44:06;;;;;;;186.35;9.13;;;;;;;20.51;56.34;98425.03;7288542;19;129709;-39
2023/12/02 01:46:31;;;;;;;227.57;11.10;;;;;;;20.54;55.64;98420.28;7290986;19;131854;-40
2023/12/02 01:49:00;;;;;;;246.20;11.30;;;;;;;20.54;56.52;98415.06;7287499;19;129912;-39
2023/12/02 01:51:27;;;;;;;222.23;10.43;;;;;;;20.37;56.33;98383.91;7289126;19;130451;-38
2023/12/02 01:53:53;;;;;;;188.38;9.10;;;;;;;20.38;55.90;98388.13;7288417;19;131575;-38
2023/12/02 01:56:19;;;;;;;205.13;9.93;;;;;;;20.50;56.18;98397.28;7287651;19;129669;-37
2023/12/02 01:58:46;;;;;;;168.63;7.93;;;;;;;20.51;55.74;98406.78;7288457;19;130739;-39
2023/12/02 02:01:11;;;;;;;244.57;11.77;;;;;;;20.55;56.34;98410.69;7290217;19;131592;-36
2023/12/02 02:03:37;;;;;;;182.50;8.68;;;;;;;20.51;56.12;98415.41;7287037;19;130165;-36
2023/12/02 02:06:02;;;;;;;179.77;8.57;;;;;;;20.53;55.94;98410.00;7289871;19;129630;-38
2023/12/02 02:08:28;;;;;;;253.30;11.48;;;;;;;20.51;56.21;98414.59;7286174;19;131774;-38
2023/12/02 02:10:59;;;;;;;195.65;9.27;;;;;;;20.50;56.75;98419.00;7288329;19;130333;-41
2023/12/02 02:13:25;;;;;;;189.80;8.98;;;;;;;20.49;55.80;98422.56;7287140;19;130237;-36
2023/12/02 02:15:51;;;;;;;120.90;6.07;;;;;;;20.50;56.03;98433.84;7288341;19;129900;-39
2023/12/02 02:18:16;;;;;;;221.75;10.20;;;;;;;20.34;56.03;98392.06;7282180;19;130110;-40
2023/12/02 02:20:47;;;;;;;176.10;8.57;;;;;;;20.50;56.16;98407.72;7289531;19;130452;-37
2023/12/02 02:23:13;;;;;;;220.60;10.57;;;;;;;20.36;56.52;98374.44;7287149;19;129723;-38
2023/12/02 02:25:38;;;;;;;176.23;8.43;;;;;;;20.50;55.84;98385.06;7288487;19;128800;-38
2023/12/02 02:28:03;;;;;;;231.93;10.73;;;;;;;20.49;56.04;98400.88;7287950;19;130148;-37
2023/12/02 02:30:29;;;;;;;233.80;10.60;;;;;;;20.50;56.18;98403.34;7287104;19;130645;-40
2023/12/02 02:32:54;;;;;;;207.50;9.80;;;;;;;20.50;56.48;98407.72;7287191;19;129084;-38
2023/12/02 02:35:19;;;;;;;203.67;9.87;;;;;;;20.50;56.07;98399.91;7288860;19;131284;-38
2023/12/02 02:37:44;;;;;;;210.82;9.77;;;;;;;20.37;56.52;98383.91;7288260;19;131685;-39
2023/12/02 02:40:10;;;;;;;223.10;10.15;;;;;;;20.52;56.44;98409.22;7288718;19;131598;-39
2023/12/02 02:42:35;;;;;;;142.52;7.10;;;;;;;20.50;56.01;98407.72;7286499;19;129386;-38
2023/12/02 02:45:01;;;;;;;197.02;9.23;;;;;;;20.52;56.31;98422.28;7288807;19;129982;-39
2023/12/02 02:47:27;;;;;;;241.83;11.07;;;;;;;20.33;56.59;98393.84;7288470;19;131987;-38
2023/12/02 02:49:52;;;;;;;164.40;8.00;;;;;;;20.47;56.48;98411.50;7286304;19;130900;-38
2023/12/02 02:52:17;;;;;;;237.85;10.93;;;;;;;20.36;56.24;98379.66;7285512;19;132274;-39
2023/12/02 02:54:43;;;;;;;179.23;8.48;;;;;;;20.47;55.84;98392.41;7287576;19;129807;-39
2023/12/02 02:57:08;;;;;;;244.68;11.50;;;;;;;20.48;56.29;98394.00;7288399;19;131908;-39
2023/12/02 02:59:33;;;;;;;173.30;8.48;;;;;;;20.50;56.47;98392.06;7287631;19;133066;-41
2023/12/02 03:01:59;;;;;;;189.48;9.02;;;;;;;20.40;56.08;98380.97;7286285;19;130331;-36
2023/12/02 03:04:24;;;;;;;218.95;10.32;;;;;;;20.49;56.63;98401.69;7283253;19;129434;-37
2023/12/02 03:06:49;;;;;;;138.73;6.30;;;;;;;20.45;56.07;98399.56;7288604;19;130799;-38
2023/12/02 03:09:15;;;;;;;214.35;10.45;;;;;;;20.45;56.23;98415.22;7284328;19;130306;-40
2023/12/02 03:11:40;;;;;;;136.68;6.78;;;;;;;20.43;56.41;98433.66;7287215;19;129394;-38
2023/12/02 03:14:06;;;;;;;240.52;11.15;;;;;;;20.50;56.61;98428.63;7284747;19;129147;-39
2023/12/02 03:16:31;;;;;;;289.40;14.02;;;;;;;20.43;56.67;98401.50;7283946;19;130050;-36
2023/12/02 03:18:57;;;;;;;168.93;8.05;;;;;;;20.44;56.52;98397.94;7285009;19;130661;-42
2023/12/02 03:21:22;;;;;;;208.90;10.18;;;;;;;20.46;56.10;98401.22;7286735;19;130415;-37
2023/12/02 03:23:49;;;;;;;197.95;9.07;;;;;;;20.45;56.71;98394.34;7274816;19;131199;-38
2023/12/02 03:26:14;;;;;;;181.82;8.65;;;;;;;20.46;56.22;98404.63;7285787;19;130047;-39
2023/12/02 03:28:40;;;;;;;189.55;9.23;;;;;;;20.47;56.63;98397.63;7285955;19;130657;-41
2023/12/02 03:31:05;;;;;;;184.75;8.80;;;;;;;20.43;56.75;98397.13;7287321;19;130051;-39
2023/12/02 03:33:31;;;;;;;215.93;10.40;;;;;;;20.43;56.76;98388.47;7285581;19;129444;-36
2023/12/02 03:35:56;;;;;;;177.18;8.48;;;;;;;20.48;56.40;98394.00;7287798;19;130220;-39
2023/12/02 03:38:21;;;;;;;198.80;9.17;;;;;;;20.48;56.05;98383.56;7283764;19;130703;-39
2023/12/02 03:40:47;;;;;;;220.68;10.18;;;;;;;20.47;56.57;98376.72;7285681;19;131896;-41
2023/12/02 03:43:12;;;;;;;258.58;11.43;;;;;;;20.45;56.51;98387.34;7287035;19;132286;-36
2023/12/02 03:45:37;;;;;;;134.93;6.68;;;;;;;20.42;56.15;98385.06;7287476;19;130235;-36
2023/12/02 03:48:03;;;;;;;160.15;7.68;;;;;;;20.47;56.06;98385.38;7284274;19;130283;-36
2023/12/02 03:50:29;;;;;;;248.77;11.48;;;;;;;20.44;56.63;98392.72;7285184;19;131971;-40
2023/12/02 03:52:54;;;;;;;243.07;11.18;;;;;;;20.41;56.16;98399.06;7286316;19;129823;-37
2023/12/02 03:55:19;;;;;;;235.05;11.43;;;;;;;20.44;56.61;98390.91;7286260;19;130319;-41
2023/12/02 03:57:45;;;;;;;119.88;6.18;;;;;;;20.46;56.51;98390.78;7283735;19;130398;-36
2023/12/02 04:00:10;;;;;;;240.73;10.43;;;;;;;20.45;56.26;98394.34;7283501;19;130036;-37
2023/12/02 04:02:38;;;;;;;176.93;8.40;;;;;;;20.47;56.22;98395.00;7285808;19;129934;-40
2023/12/02 04:05:08;;;;;;;191.77;8.93;;;;;;;20.46;56.48;98391.56;7286422;19;130561;-34
2023/12/02 04:07:33;;;;;;;208.13;9.85;;;;;;;20.46;56.47;98382.94;7285326;19;131983;-40
2023/12/02 04:09:59;;;;;;;223.48;10.32;;;;;;;20.45;56.44;98374.28;7285506;19;129578;-38
2023/12/02 04:12:24;;;;;;;264.00;12.30;;;;;;;20.47;56.76;98376.72;7283812;19;131955;-40
2023/12/02 04:14:49;;;;;;;175.13;8.23;;;;;;;20.47;56.15;98363.69;7286705;19;131076;-40
2023/12/02 04:17:15;;;;;;;198.13;9.35;;;;;;;20.45;56.47;98373.47;7285918;19;130831;-36
2023/12/02 04:19:40;;;;;;;228.68;10.70;;;;;;;20.48;56.28;98378.34;7284316;19;131347;-40
2023/12/02 04:22:06;;;;;;;190.77;8.68;;;;;;;20.46;56.49;98381.13;7286280;19;129137;-33
2023/12/02 04:24:31;;;;;;;161.07;8.05;;;;;;;20.47;56.62;98384.56;7282365;19;132105;-39
2023/12/02 04:26:57;;;;;;;231.90;11.02;;;;;;;20.49;55.93;98393.06;7285281;19;131376;-39
2023/12/02 04:29:22;;;;;;;260.42;12.05;;;;;;;20.47;56.00;98397.63;7282843;19;130629;-41
2023/12/02 04:31:47;;;;;;;172.82;8.25;;;;;;;20.45;56.73;98402.16;7288272;19;129626;-38
2023/12/02 04:34:14;;;;;;;214.38;9.57;;;;;;;20.42;56.49;98400.72;7281605;19;130368;-36
2023/12/02 04:36:39;;;;;;;177.60;8.13;;;;;;;20.42;56.36;98405.09;7284240;19;131203;-40
2023/12/02 04:39:05;;;;;;;291.45;13.15;;;;;;;20.44;56.40;98413.59;7283184;19;129430;-40
2023/12/02 04:41:31;;;;;;;214.30;10.02;;;;;;;20.41;56.18;98416.53;7286178;19;129655;-42
2023/12/02 04:43:56;;;;;;;164.82;7.93;;;;;;;20.42;56.63;98413.78;7292572;19;131744;-40
2023/12/02 04:46:22;;;;;;;225.70;10.40;;;;;;;20.43;56.75;98418.00;7290916;19;130310;-40
2023/12/02 04:48:47;;;;;;;177.18;8.13;;;;;;;20.42;56.83;98405.09;7290960;19;129672;-41
2023/12/02 04:51:12;;;;;;;147.48;7.15;;;;;;;20.34;56.27;98368.56;7293091;19;129928;-42
2023/12/02 04:53:38;;;;;;;181.05;8.68;;;;;;;20.45;56.42;98410.84;7287894;19;130042;-38
2023/12/02 04:56:05;;;;;;;229.30;10.38;;;;;;;20.27;56.10;98380.59;7292012;19;134042;-36
2023/12/02 04:58:30;;;;;;;242.57;11.30;;;;;;;20.40;56.36;98407.88;7290229;19;129078;-39
2023/12/02 05:00:55;;;;;;;190.10;9.05;;;;;;;20.40;56.83;98402.66;7291717;19;129125;-40
2023/12/02 05:03:21;;;;;;;170.75;8.30;;;;;;;20.26;56.17;98384.22;7290339;19;130269;-37
2023/12/02 05:05:46;;;;;;;200.98;9.30;;;;;;;20.42;56.83;98405.09;7290975;19;130697;-38
2023/12/02 05:08:11;;;;;;;227.18;10.25;;;;;;;20.41;56.21;98419.16;7290682;19;131201;-41
2023/12/02 05:10:37;;;;;;;195.00;9.15;;;;;;;20.43;56.84;98435.44;7292348;19;131656;-40
2023/12/02 05:13:02;;;;;;;196.48;9.30;;;;;;;20.41;56.91;98440.03;7291174;19;130542;-39
2023/12/02 05:15:28;;;;;;;256.10;11.63;;;;;;;20.44;56.58;98437.09;7290219;19;129896;-36
2023/12/02 05:17:53;;;;;;;180.70;8.35;;;;;;;20.42;56.55;98441.66;7290409;19;129764;-37
2023/12/02 05:20:19;;;;;;;180.88;8.43;;;;;;;20.38;56.51;98440.34;7289527;19;129637;-37
2023/12/02 05:22:44;;;;;;;197.82;8.95;;;;;;;20.42;56.73;98441.66;7291927;19;132540;-41
2023/12/02 05:25:10;;;;;;;262.75;11.52;;;;;;;20.45;56.15;98441.34;7288042;19;130302;-39
2023/12/02 05:27:36;;;;;;;225.87;10.60;;;;;;;20.47;56.76;98444.59;7290107;19;129946;-35
2023/12/02 05:30:01;;;;;;;146.05;7.28;;;;;;;20.42;56.13;98439.06;7292034;19;129427;-40
2023/12/02 05:32:27;;;;;;;221.47;10.43;;;;;;;20.42;56.58;98441.66;7288560;19;130206;-39
2023/12/02 05:34:52;;;;;;;231.52;10.55;;;;;;;20.36;56.57;98437.09;7291222;19;130167;-39
2023/12/02 05:37:17;;;;;;;125.07;6.15;;;;;;;20.43;56.63;98445.88;7290034;19;130144;-36
2023/12/02 05:39:43;;;;;;;119.63;6.40;;;;;;;20.42;56.74;98446.88;7286322;19;130090;-36
2023/12/02 05:42:08;;;;;;;186.10;8.57;;;;;;;20.38;56.42;98450.78;7290892;19;129559;-38
2023/12/02 05:44:34;;;;;;;256.17;11.60;;;;;;;20.44;56.83;98444.94;7290812;19;130310;-40
2023/12/02 05:46:59;;;;;;;225.68;11.13;;;;;;;20.39;56.08;98436.75;7290867;19;129860;-40
2023/12/02 05:49:25;;;;;;;108.05;5.90;;;;;;;20.40;56.27;98441.00;7283458;19;130269;-37
2023/12/02 05:51:50;;;;;;;188.07;8.45;;;;;;;20.39;56.50;98436.75;7291880;19;132081;-39
2023/12/02 05:54:16;;;;;;;222.02;10.25;;;;;;;20.37;56.21;98428.28;7287304;19;129950;-36
2023/12/02 05:56:41;;;;;;;188.93;8.90;;;;;;;20.41;56.88;98424.38;7291451;19;129433;-38
2023/12/02 05:59:07;;;;;;;166.38;7.55;;;;;;;20.42;56.11;98432.03;7287388;19;129830;-39
2023/12/02 06:01:32;;;;;;;253.70;11.25;;;;;;;20.39;56.80;98434.97;7287529;19;130484;-38
2023/12/02 06:03:57;;;;;;;184.07;8.68;;;;;;;20.38;56.69;98437.72;7289333;19;130306;-37
2023/12/02 06:06:23;;;;;;;147.93;7.13;;;;;;;20.26;56.45;98418.13;7288716;19;131116;-37
2023/12/02 06:08:48;;;;;;;241.70;11.02;;;;;;;20.37;56.36;98442.16;7288192;19;129335;-41
2023/12/02 06:11:13;;;;;;;187.40;8.48;;;;;;;20.21;56.20;98417.78;7291853;19;130150;-39
2023/12/02 06:13:39;;;;;;;158.20;7.20;;;;;;;20.38;56.56;98442.94;7288584;19;130372;-37
2023/12/02 06:16:04;;;;;;;182.80;8.85;;;;;;;20.39;56.49;98455.03;7286802;19;129897;-38
2023/12/02 06:18:30;;;;;;;221.00;10.38;;;;;;;20.37;56.16;98451.75;7284028;19;130399;-39
2023/12/02 06:20:57;;;;;;;216.88;9.95;;;;;;;20.37;56.85;98449.16;7288147;19;130031;-42
2023/12/02 06:23:22;;;;;;;;;;;;;;;20.37;57.72;98444.75;7290670;19;131812;-38
2023/12/02 06:25:47;;;;;;;172.40;8.03;;;;;;;20.38;56.54;98461.22;7285771;19;130089;-39
2023/12/02 06:28:12;;;;;;;183.82;8.82;;;;;;;20.37;56.28;98464.81;7287182;19;130874;-41
2023/12/02 06:30:38;;;;;;;269.50;12.70;;;;;;;20.38;56.71;98476.88;7286184;19;130908;-40
2023/12/02 06:33:03;;;;;;;213.50;10.05;;;;;;;20.43;56.19;98474.59;7288155;19;130222;-41
2023/12/02 06:35:29;;;;;;;154.23;8.45;;;;;;;20.40;56.11;98475.75;7284233;19;130124;-36
2023/12/02 06:37:54;;;;;;;192.32;8.60;;;;;;;20.38;56.28;98489.94;7286078;19;129980;-36
2023/12/02 06:40:19;;;;;;;172.65;8.38;;;;;;;20.34;56.67;98486.00;7286162;19;130215;-38
2023/12/02 06:42:44;;;;;;;329.77;15.60;;;;;;;20.39;56.83;98479.34;7284477;19;130212;-40
2023/12/02 06:45:10;;;;;;;202.02;9.60;;;;;;;20.35;56.74;98466.75;7285012;19;130341;-41
2023/12/02 06:47:36;;;;;;;350.73;17.15;;;;;;;20.37;56.40;98483.91;7279831;19;130943;-36
2023/12/02 06:50:03;;;;;;;141.17;6.93;;;;;;;20.35;56.43;98485.03;7287372;19;130823;-38
2023/12/02 06:52:29;;;;;;;141.25;6.97;;;;;;;20.36;56.69;98489.28;7288723;19;131172;-38
2023/12/02 06:54:54;;;;;;;167.23;7.85;;;;;;;20.35;56.59;98487.63;7286879;19;129534;-38
2023/12/02 06:57:20;;;;;;;198.48;9.07;;;;;;;20.35;56.77;98503.31;7288201;19;131332;-37
2023/12/02 06:59:45;;;;;;;152.00;7.45;;;;;;;20.38;56.67;98498.59;7288582;19;135316;-39
2023/12/02 07:02:11;;;;;;;227.13;10.50;;;;;;;20.40;56.60;98512.31;7284347;19;131238;-38
2023/12/02 07:04:37;;;;;;;250.60;11.90;;;;;;;20.39;56.17;98518.50;7284974;19;129581;-36
2023/12/02 07:07:02;;;;;;;225.95;10.30;;;;;;;20.40;56.29;98527.13;7287497;19;129771;-36
2023/12/02 07:09:27;;;;;;;185.15;8.85;;;;;;;20.34;56.28;98519.94;7286375;19;129247;-40
2023/12/02 07:11:53;;;;;;;185.10;8.73;;;;;;;20.37;56.83;98535.28;7289016;19;130768;-40
2023/12/02 07:14:18;;;;;;;169.88;8.00;;;;;;;20.31;56.13;98528.09;7286626;19;132234;-41
2023/12/02 07:16:43;;;;;;;195.38;8.88;;;;;;;20.36;56.77;98541.50;7287872;19;131324;-36
2023/12/02 07:19:09;;;;;;;299.05;13.18;;;;;;;20.35;56.66;98539.84;7276311;19;130262;-37
2023/12/02 07:21:34;;;;;;;164.85;8.00;;;;;;;20.35;56.87;98539.84;7283288;19;131636;-37
2023/12/02 07:23:59;;;;;;;267.45;11.65;;;;;;;20.17;56.62;98520.84;7286063;19;129693;-40
2023/12/02 07:26:25;;;;;;;204.73;9.55;;;;;;;20.29;56.60;98550.91;7288899;19;129389;-37
2023/12/02 07:28:50;;;;;;;166.77;8.07;;;;;;;20.35;56.67;98555.50;7288682;19;130557;-40
2023/12/02 07:31:17;;;;;;;140.63;7.10;;;;;;;20.35;56.46;98560.72;7289195;19;130389;-37
2023/12/02 07:33:43;;;;;;;250.15;11.35;;;;;;;20.17;56.10;98526.06;7287988;19;134231;-39
2023/12/02 07:36:09;;;;;;;194.50;9.13;;;;;;;20.36;56.65;98551.94;7289790;19;130405;-40
2023/12/02 07:38:35;;;;;;;176.83;8.50;;;;;;;20.35;56.49;98558.94;7286365;19;131061;-40
2023/12/02 07:41:00;;;;;;;180.60;8.38;;;;;;;20.32;56.21;98558.44;7287676;19;130346;-38
2023/12/02 07:43:26;;;;;;;204.10;9.32;;;;;;;20.12;56.81;98529.13;7289092;19;129813;-38
2023/12/02 07:45:51;;;;;;;168.82;8.32;;;;;;;20.28;56.83;98557.13;7284196;19;129478;-38
2023/12/02 07:48:17;;;;;;;105.20;5.35;;;;;;;20.21;56.59;98527.41;7283963;19;130483;-36
2023/12/02 07:50:42;;;;;;;241.35;11.63;;;;;;;20.36;56.14;98565.78;7281970;19;130269;-37
2023/12/02 07:53:07;;;;;;;238.82;11.27;;;;;;;20.36;56.35;98557.94;7284798;19;130140;-40
2023/12/02 07:55:33;;;;;;;236.63;11.35;;;;;;;20.38;56.83;98557.78;7287130;19;130285;-41
2023/12/02 07:57:59;;;;;;;141.30;6.85;;;;;;;20.37;56.32;98556.16;7283188;19;130431;-39
2023/12/02 08:00:24;;;;;;;196.38;9.40;;;;;;;20.37;56.16;98554.38;7283012;19;131640;-39
2023/12/02 08:02:49;;;;;;;205.57;9.50;;;;;;;20.36;56.35;98551.94;7284538;19;129668;-41
2023/12/02 08:05:15;;;;;;;207.93;9.77;;;;;;;20.35;56.95;98558.94;7284334;19;129512;-38
2023/12/02 08:07:41;;;;;;;155.80;7.68;;;;;;;20.17;56.43;98531.28;7284140;19;130122;-41
2023/12/02 08:10:06;;;;;;;205.43;9.53;;;;;;;20.33;56.96;98560.88;7280059;19;133843;-40
2023/12/02 08:12:32;;;;;;;221.32;10.35;;;;;;;20.32;56.92;98568.88;7285995;19;129685;-37
2023/12/02 08:14:58;;;;;;;177.87;8.60;;;;;;;20.32;56.76;98574.91;7281023;19;130511;-42
2023/12/02 08:17:23;;;;;;;125.00;6.00;;;;;;;20.30;56.48;98573.44;7286765;19;130609;-40
2023/12/02 08:19:48;;;;;;;325.58;14.70;;;;;;;20.28;56.64;98570.19;7289080;19;129985;-40
2023/12/02 08:22:13;;;;;;;203.20;9.52;;;;;;;20.31;56.71;98583.72;7279029;19;131005;-37
2023/12/02 08:24:42;;;;;;;259.35;12.02;;;;;;;20.28;56.44;98580.63;7289282;19;129855;-37
2023/12/02 08:27:09;;;;;;;224.55;10.90;;;;;;;20.29;56.83;98587.47;7287976;19;129860;-38
2023/12/02 08:29:34;;;;;;;221.30;10.35;;;;;;;20.31;56.57;98585.53;7289118;19;129724;-39
2023/12/02 08:31:59;;;;;;;285.63;13.38;;;;;;;20.29;56.26;98587.47;7286719;19;130853;-37
2023/12/02 08:34:25;;;;;;;193.60;9.73;;;;;;;20.31;56.38;98580.31;7288124;19;130548;-39
2023/12/02 08:36:50;;;;;;;176.65;8.82;;;;;;;20.33;56.66;98586.16;7291364;19;130100;-41
2023/12/02 08:39:15;;;;;;;230.02;10.77;;;;;;;20.27;56.00;98590.22;7288827;19;131077;-38
2023/12/02 08:41:41;;;;;;;153.68;7.97;;;;;;;20.28;56.09;98591.84;7294502;19;131378;-38
2023/12/02 08:44:06;;;;;;;157.77;7.68;;;;;;;20.33;56.36;98594.00;7287953;19;131642;-40
2023/12/02 08:46:31;;;;;;;213.68;10.05;;;;;;;20.30;56.15;98587.31;7289616;19;130249;-35
2023/12/02 08:48:57;;;;;;;206.38;9.70;;;;;;;20.29;56.59;98577.03;7288738;19;130481;-39
2023/12/02 08:51:22;;;;;;;180.30;8.88;;;;;;;20.31;56.13;98570.66;7293574;19;129272;-39
2023/12/02 08:53:59;;;;;;;226.73;10.85;;;;;;;20.32;56.48;98568.88;7290890;19;130755;-36
2023/12/02 08:56:26;;;;;;;168.38;8.13;;;;;;;20.33;56.55;98573.09;7290276;19;130895;-40
2023/12/02 08:58:52;;;;;;;220.40;10.32;;;;;;;20.27;56.23;98571.13;7290613;19;130660;-39
2023/12/02 09:01:17;;;;;;;244.85;11.75;;;;;;;20.26;56.29;98574.72;7287317;19;129820;-38
2023/12/02 09:03:42;;;;;;;223.15;10.98;;;;;;;20.32;56.65;98587.16;7291005;19;130969;-37
2023/12/02 09:06:08;;;;;;;204.30;9.88;;;;;;;20.30;56.36;98610.78;7288350;19;132637;-40
2023/12/02 09:08:33;;;;;;;235.48;11.07;;;;;;;20.28;56.78;98606.72;7290101;19;130891;-40
2023/12/02 09:10:59;;;;;;;200.50;9.70;;;;;;;20.31;56.98;98614.22;7290294;19;131048;-41
2023/12/02 09:13:39;;;;;;;186.60;9.00;;;;;;;20.30;56.97;98615.19;7291036;19;130449;-35
2023/12/02 09:16:09;;;;;;;193.85;9.30;;;;;;;20.28;57.00;98623.16;7289928;19;130255;-40
2023/12/02 09:18:36;;;;;;;158.80;7.82;;;;;;;20.31;56.99;98619.44;7285409;19;130967;-41
2023/12/02 09:21:02;;;;;;;189.10;9.32;;;;;;;20.30;56.46;98620.41;7286445;19;130110;-37
2023/12/02 09:23:28;;;;;;;247.00;11.77;;;;;;;20.28;56.41;98617.97;7289896;19;129341;-41
2023/12/02 09:25:58;;;;;;;228.77;10.85;;;;;;;20.26;56.62;98619.09;7287826;19;130378;-39
2023/12/02 09:28:26;;;;;;;261.30;12.43;;;;;;;20.23;56.68;98620.22;7285077;19;130427;-42
2023/12/02 09:31:07;;;;;;;258.60;12.10;;;;;;;20.19;58.18;98621.50;7282870;19;130179;-39
2023/12/02 09:33:33;;;;;;;237.20;11.75;;;;;;;20.01;57.71;98602.44;7283525;19;129516;-36
2023/12/02 09:36:01;;;;;;;173.85;8.70;;;;;;;20.55;56.25;98630.00;7287013;19;130012;-40
2023/12/02 09:38:27;;;;;;;136.90;9.20;;;;;;;20.93;51.27;98634.72;7288399;19;131337;-37
2023/12/02 09:41:30;;;;;;;217.57;12.17;;;;;;;21.30;48.75;98606.44;7283157;19;129612;-38
2023/12/02 09:43:58;;;;;;;195.55;11.40;;;;;;;21.96;47.39;98619.38;7287143;19;129667;-41
2023/12/02 09:46:26;;;;;;;234.18;13.15;;;;;;;22.29;46.27;98641.91;7288156;19;130222;-37
2023/12/02 09:49:36;;;;;;;316.17;18.20;;;;;;;22.42;45.88;98633.50;7286074;19;131243;-38
2023/12/02 09:52:24;;;;;;;236.38;13.73;;;;;;;22.71;45.37;98633.78;7285270;19;129211;-39
2023/12/02 09:55:05;;;;;;;291.35;16.77;;;;;;;22.85;43.68;98633.06;7286388;19;132010;-40
2023/12/02 09:57:37;;;;;;;261.95;15.55;;;;;;;22.90;43.59;98626.31;7285995;19;130553;-41
2023/12/02 10:00:15;;;;;;;243.73;14.30;;;;;;;23.03;43.85;98639.69;7288845;19;130106;-40
2023/12/02 10:02:59;;;;;;;177.30;11.98;;;;;;;23.23;43.33;98634.81;7288045;19;129922;-39
2023/12/02 10:05:25;;;;;;;180.65;13.88;;;;;;;23.27;40.43;98627.47;7290411;19;129105;-36
2023/12/02 10:08:05;;;;;;;147.77;11.97;;;;;;;23.32;39.84;98625.13;7285400;19;131622;-39
2023/12/02 10:10:40;;;;;;;232.57;15.35;;;;;;;23.34;40.70;98623.94;7285647;19;131047;-37
2023/12/02 10:13:18;;;;;;;278.13;17.58;;;;;;;23.40;40.45;98633.75;7285373;19;130882;-36
2023/12/02 10:15:47;;;;;;;264.92;16.17;;;;;;;23.54;41.24;98640.88;7285369;19;129699;-36
2023/12/02 10:18:14;;;;;;;214.07;14.32;;;;;;;23.62;41.16;98638.19;7288368;19;130162;-38
2023/12/02 10:20:41;;;;;;;167.30;12.77;;;;;;;23.72;40.93;98625.63;7285924;19;131467;-40
2023/12/02 10:23:24;;;;;;;223.98;14.50;;;;;;;23.47;41.69;98600.56;7289550;19;129214;-38
2023/12/02 10:25:49;;;;;;;283.88;17.30;;;;;;;23.78;41.68;98622.31;7282462;19;131388;-38
2023/12/02 10:28:23;;;;;;;243.85;15.95;;;;;;;23.78;39.66;98611.00;7283248;19;130796;-38
2023/12/02 10:30:58;;;;;;;254.98;17.77;;;;;;;23.91;40.29;98613.84;7285446;19;131072;-37
2023/12/02 10:33:34;;;;;;;221.48;16.60;;;;;;;23.91;40.18;98606.78;7286194;19;129782;-41
2023/12/02 10:36:07;;;;;;;172.40;15.85;;;;;;;23.95;40.23;98608.03;7286338;19;129833;-42
2023/12/02 10:38:54;;;;;;;211.00;17.50;;;;;;;24.00;40.21;98608.34;7282508;19;130470;-41
2023/12/02 10:41:46;;;;;;;210.82;17.80;;;;;;;24.01;39.78;98607.38;7285222;19;129676;-37
2023/12/02 10:44:16;;;;;;;222.40;19.48;;;;;;;23.99;40.35;98611.97;7284541;19;129565;-40
2023/12/02 10:46:43;;;;;;;236.70;20.25;;;;;;;24.07;38.34;98606.66;7285914;19;130638;-40
2023/12/02 10:49:11;;;;;;;272.65;21.25;;;;;;;24.12;38.82;98606.94;7281327;19;130549;-36
2023/12/02 10:51:40;;;;;;;339.73;24.17;;;;;;;24.13;40.11;98582.28;7286421;19;131134;-40
2023/12/02 10:54:07;;;;;;;172.05;17.52;;;;;;;24.25;38.94;98599.25;7287672;19;129356;-42
2023/12/02 10:56:37;;;;;;;233.05;18.95;;;;;;;24.19;38.84;98588.63;7285444;19;130895;-37
2023/12/02 10:59:04;;;;;;;239.82;19.02;;;;;;;24.20;39.59;98595.50;7286261;19;130129;-39
2023/12/02 11:01:38;;;;;;;156.93;15.43;;;;;;;24.20;39.50;98598.13;7288355;19;132467;-37
2023/12/02 11:04:18;;;;;;;210.07;18.08;;;;;;;24.27;39.39;98601.69;7288328;19;129620;-37
2023/12/02 11:06:53;;;;;;;180.25;16.75;;;;;;;24.35;39.88;98594.53;7289071;19;129745;-41